Aérodrome :
LOGIN :

S'inscrire | Disclaimer

   EN    FR    IT 

 










Légende :    VFR   VFR Marginal   IFR   IFR Intensif   IFR Très Intensif
Visi : 
Plafond : 
>= 8 km
>= 3000ft
5 à 8 km
1000 à 3000 ft
1500m à 5 km
500 à 1000 ft
800 à 1500m
200 à 500 ft
< 800m
< 200 ft
Symboles :   Orages  Brouillard  Fortes neiges  Fortes précipitations  Vent > 20 kt
SIGMETs :   Divers  Orages  Givrage  Turbulence  Onde Orograph.  Cendres Volcan.







- Altitude de l'aérodrome : 13 ft
- Code IATA : CEQ
- Voir les cartes d'approche


LFMD - Cannes Mandelieu

DERNIER METAR :
  • 262200Z AUTO VRB03KT CAVOK 17/12 Q1017

METARs EXPIRÉS :
  • 262130Z AUTO 36003KT CAVOK 18/12 Q1017
  • 262100Z AUTO 01003KT 330V030 CAVOK 18/12 Q1017 NOSIG
  • 262030Z AUTO VRB03KT CAVOK 19/12 Q1017 NOSIG
  • 262000Z AUTO VRB01KT 9999 FEW072 20/10 Q1017 NOSIG
  • 261930Z AUTO 00000KT 9999 BKN070 BKN080 21/09 Q1016 NOSIG

TAF AMD TAF LFMD
Valide du 26 à 16h jusqu'au 27 à 15h UTC


261618Z 2616/2715 19006KT 9999 SCT076
BECMG 2616/2618 VRB02KT
BECMG 2701/2703 34010KT
BECMG 2707/2709 17005KT
ATIS : +33 4 93 48 73 23
Pas de NOTAMs connus pour ce terrain.



MET'MAP, la Météo Aéronautique d'un coup d'oeil ! - Copyright ORBIFLY Décembre 2007 - Disclaimer

ORBIFLY MET'MAP TEAM :

Programmation & Développement : Alexandra Zaïnal
Conception & Développement : Baudouin d'Aumeries
Co-Programmation & Développement : Marc-Olivier Méhu
Soutien technique & logistique : Manuel Goepfert

Contact : metmap@orbifly.com




SOURCES & CREDITS :

   NOAA